createdAt,value
2023-04-20T00:00:58.803Z,4.47
2023-04-20T00:05:01.570Z,7.07
2023-04-20T00:09:03.095Z,5.80
2023-04-20T00:13:04.527Z,7.40
2023-04-20T00:17:05.973Z,8.10
2023-04-20T00:21:08.696Z,7.13
2023-04-20T00:25:10.173Z,6.37
2023-04-20T00:29:11.617Z,3.60
2023-04-20T00:33:13.102Z,6.50
2023-04-20T00:37:15.853Z,3.93
2023-04-20T00:41:17.256Z,8.17
2023-04-20T00:45:18.802Z,6.67
2023-04-20T00:49:20.281Z,5.63
2023-04-20T00:53:23.439Z,6.53
2023-04-20T00:57:26.256Z,4.57
2023-04-20T01:01:27.764Z,8.80
2023-04-20T01:05:29.478Z,6.73
2023-04-20T01:09:32.247Z,4.33
2023-04-20T01:13:33.644Z,8.50
2023-04-20T01:17:35.836Z,11.07
2023-04-20T01:21:37.476Z,6.23
2023-04-20T01:25:40.470Z,6.13
2023-04-20T01:29:42.450Z,5.47
2023-04-20T01:33:44.003Z,6.37
2023-04-20T01:37:45.417Z,5.40
2023-04-20T01:41:48.242Z,6.93
2023-04-20T01:45:49.877Z,4.67
2023-04-20T01:49:51.278Z,11.77
2023-04-20T01:53:52.680Z,5.57
2023-04-20T01:57:55.500Z,4.10
2023-04-20T02:01:56.923Z,4.30
2023-04-20T02:05:58.376Z,4.03
2023-04-20T02:09:59.763Z,4.30
2023-04-20T02:14:02.609Z,5.73
2023-04-20T02:18:04.379Z,5.00
2023-04-20T02:22:05.977Z,8.20
2023-04-20T02:26:07.393Z,7.20
2023-04-20T02:30:11.043Z,8.03
2023-04-20T02:34:12.640Z,6.20
2023-04-20T02:38:14.081Z,6.03
2023-04-20T02:42:15.487Z,4.73
2023-04-20T02:46:18.723Z,6.10
2023-04-20T02:50:20.383Z,9.67
2023-04-20T02:54:22.077Z,4.00
2023-04-20T02:58:23.473Z,5.87
2023-04-20T03:02:26.334Z,5.47
2023-04-20T03:06:27.933Z,3.90
2023-04-20T03:10:29.561Z,7.17
2023-04-20T03:14:31.011Z,4.50
2023-04-20T03:18:33.966Z,5.90
2023-04-20T03:22:35.403Z,4.77
2023-04-20T03:26:36.773Z,4.80
2023-04-20T03:30:38.385Z,3.63
2023-04-20T03:34:41.118Z,3.97
2023-04-20T03:38:42.550Z,7.13
2023-04-20T03:42:44.253Z,2.97
2023-04-20T03:46:45.641Z,3.63
2023-04-20T03:50:48.400Z,7.13
2023-04-20T03:54:49.900Z,6.40
2023-04-20T03:58:51.384Z,4.60
2023-04-20T04:02:52.985Z,5.63
2023-04-20T04:06:55.878Z,6.07
2023-04-20T04:10:57.529Z,7.00
2023-04-20T04:14:59.011Z,7.10
2023-04-20T04:19:00.439Z,4.47
2023-04-20T04:23:03.191Z,5.67
2023-04-20T04:27:06.055Z,5.03
2023-04-20T04:31:07.756Z,5.63
2023-04-20T04:35:09.319Z,4.63
2023-04-20T04:39:14.663Z,4.20
2023-04-20T04:43:16.297Z,5.57
2023-04-20T04:47:17.862Z,5.50
2023-04-20T04:51:19.260Z,6.10
2023-04-20T04:55:22.013Z,7.67
2023-04-20T04:59:23.539Z,6.10
2023-04-20T05:03:25.158Z,5.77
2023-04-20T05:07:26.857Z,5.33
2023-04-20T05:11:29.939Z,6.07
2023-04-20T05:15:31.422Z,11.33
2023-04-20T05:19:32.788Z,4.70
2023-04-20T05:23:34.175Z,8.73
2023-04-20T05:27:37.421Z,7.03
2023-04-20T05:31:38.973Z,7.17
2023-04-20T05:35:40.435Z,5.27
2023-04-20T05:39:41.999Z,8.07
2023-04-20T05:43:44.857Z,4.53
2023-04-20T05:47:52.710Z,8.80
2023-04-20T05:51:54.240Z,5.13
2023-04-20T05:55:55.641Z,7.00
2023-04-20T05:59:58.606Z,5.77
2023-04-20T06:04:00.496Z,7.67
2023-04-20T06:08:03.190Z,7.70
2023-04-20T06:12:04.918Z,5.80
2023-04-20T06:16:08.111Z,8.63
2023-04-20T06:20:10.598Z,6.10
2023-04-20T06:24:11.984Z,6.17
2023-04-20T06:28:13.390Z,5.13
2023-04-20T06:32:16.111Z,7.73
2023-04-20T06:36:17.570Z,6.90
2023-04-20T06:40:19.048Z,5.87
2023-04-20T06:44:20.644Z,7.60
2023-04-20T06:48:32.153Z,5.67
2023-04-20T06:52:34.325Z,9.73
2023-04-20T06:56:35.959Z,9.27
2023-04-20T07:00:37.369Z,7.07
2023-04-20T07:04:40.138Z,6.57
2023-04-20T07:08:41.846Z,8.93
2023-04-20T07:12:44.255Z,8.20
2023-04-20T07:16:45.808Z,12.47
2023-04-20T07:20:48.612Z,11.07
2023-04-20T07:24:49.989Z,6.57
2023-04-20T07:28:51.950Z,9.93
2023-04-20T07:32:53.466Z,9.20
2023-04-20T07:36:56.252Z,8.43
2023-04-20T07:40:57.646Z,7.67
2023-04-20T07:44:59.318Z,10.53
2023-04-20T07:49:00.717Z,11.33
2023-04-20T07:53:03.532Z,7.40
2023-04-20T07:57:04.978Z,8.87
2023-04-20T08:01:06.577Z,6.73
2023-04-20T08:05:08.823Z,5.93
2023-04-20T08:09:13.256Z,5.33
2023-04-20T08:13:14.863Z,5.43
2023-04-20T08:17:16.271Z,5.57
2023-04-20T08:21:17.678Z,5.73
2023-04-20T08:25:20.584Z,5.10
2023-04-20T08:29:22.045Z,3.50
2023-04-20T08:33:23.518Z,4.17
2023-04-20T08:37:25.022Z,3.60
2023-04-20T08:41:27.872Z,3.40
2023-04-20T08:45:29.971Z,3.30
2023-04-20T08:49:31.783Z,3.50
2023-04-20T08:53:33.622Z,4.00
2023-04-20T08:57:36.406Z,3.17
2023-04-20T09:01:38.211Z,4.37
2023-04-20T09:05:39.597Z,3.30
2023-04-20T09:09:40.993Z,2.87
2023-04-20T09:13:43.996Z,2.80
2023-04-20T09:17:45.421Z,3.10
2023-04-20T09:21:48.997Z,3.10
2023-04-20T09:25:51.717Z,2.50
2023-04-20T09:29:58.343Z,3.67
2023-04-20T09:34:01.313Z,2.53
2023-04-20T09:38:02.944Z,3.27
2023-04-20T09:42:05.615Z,3.40
2023-04-20T09:46:09.093Z,4.53
2023-04-20T09:50:24.686Z,3.17
2023-04-20T09:54:32.118Z,3.27
2023-04-20T09:58:34.809Z,3.30
2023-04-20T10:02:38.147Z,3.63
2023-04-20T10:06:51.224Z,2.60
2023-04-20T10:10:52.688Z,3.10
2023-04-20T10:14:55.172Z,2.43
2023-04-20T10:18:59.797Z,2.53
2023-04-20T10:23:08.222Z,2.43
2023-04-20T10:27:20.361Z,1.90
2023-04-20T10:31:23.048Z,2.00
2023-04-20T10:35:25.871Z,0.90
2023-04-20T10:39:27.252Z,2.30
2023-04-20T10:43:28.655Z,1.00
2023-04-20T10:47:32.071Z,2.03
2023-04-20T10:51:35.076Z,1.20
2023-04-20T10:55:36.745Z,1.10
2023-04-20T10:59:38.153Z,0.90
2023-04-20T11:03:39.700Z,1.20
2023-04-20T11:07:50.961Z,1.20
2023-04-20T11:11:59.103Z,6.53
2023-04-20T11:16:10.075Z,1.10
2023-04-20T11:20:13.469Z,1.40
2023-04-20T11:24:19.521Z,2.00
2023-04-20T11:28:21.213Z,1.20
2023-04-20T11:32:23.049Z,1.23
2023-04-20T11:36:26.931Z,1.70
2023-04-20T11:40:29.676Z,1.60
2023-04-20T11:44:31.295Z,2.47
2023-04-20T11:48:32.725Z,1.40
2023-04-20T11:52:34.176Z,1.73
2023-04-20T11:56:36.989Z,1.93
2023-04-20T12:00:38.493Z,2.53
2023-04-20T12:04:39.959Z,1.83
2023-04-20T12:08:41.434Z,2.13
2023-04-20T12:12:44.229Z,1.70
2023-04-20T12:16:45.748Z,2.10
2023-04-20T12:20:47.217Z,1.57
2023-04-20T12:24:48.760Z,2.13
2023-04-20T12:28:51.498Z,2.80
2023-04-20T12:32:53.093Z,3.30
2023-04-20T12:36:54.566Z,4.27
2023-04-20T12:40:56.041Z,3.37
2023-04-20T12:44:58.834Z,3.07
2023-04-20T12:49:00.293Z,3.33
2023-04-20T12:53:01.955Z,3.30
2023-04-20T12:57:03.663Z,2.93
2023-04-20T13:01:06.585Z,1.80
2023-04-20T13:05:08.718Z,2.10
2023-04-20T13:09:10.111Z,2.13
2023-04-20T13:13:11.613Z,2.50
2023-04-20T13:17:14.442Z,3.33
2023-04-20T13:21:15.857Z,4.30
2023-04-20T13:25:17.384Z,2.70
2023-04-20T13:29:19.078Z,3.67
2023-04-20T13:33:22.226Z,3.27
2023-04-20T13:37:23.710Z,4.77
2023-04-20T13:41:25.142Z,3.67
2023-04-20T13:45:26.687Z,6.20
2023-04-20T13:49:29.493Z,4.80
2023-04-20T13:53:30.934Z,4.47
2023-04-20T13:57:32.516Z,5.57
2023-04-20T14:01:34.106Z,4.43
2023-04-20T14:05:38.122Z,4.77
2023-04-20T14:09:39.542Z,3.53
2023-04-20T14:13:41.249Z,3.87
2023-04-20T14:17:42.781Z,6.00
2023-04-20T14:21:45.577Z,3.00
2023-04-20T14:25:46.969Z,3.23
2023-04-20T14:29:49.332Z,3.17
2023-04-20T14:33:50.749Z,3.53
2023-04-20T14:37:53.966Z,3.23
2023-04-20T14:41:55.455Z,2.80
2023-04-20T14:45:56.910Z,5.70
2023-04-20T14:49:58.531Z,3.20
2023-04-20T14:54:01.640Z,6.23
2023-04-20T14:58:03.127Z,4.70
2023-04-20T15:02:04.559Z,3.63
2023-04-20T15:06:06.932Z,3.50
2023-04-20T15:10:09.877Z,4.63
2023-04-20T15:14:11.299Z,2.93
2023-04-20T15:18:12.708Z,3.13
2023-04-20T15:22:14.286Z,5.17
2023-04-20T15:26:17.076Z,4.73
2023-04-20T15:30:18.669Z,5.03
2023-04-20T15:34:20.733Z,6.10
2023-04-20T15:38:22.493Z,6.37
2023-04-20T15:42:25.349Z,4.50
2023-04-20T15:46:27.161Z,3.47
2023-04-20T15:50:28.638Z,4.50
2023-04-20T15:54:30.087Z,4.63
2023-04-20T15:58:33.357Z,3.23
2023-04-20T16:02:35.624Z,5.30
2023-04-20T16:06:40.865Z,4.33
2023-04-20T16:10:42.265Z,5.43
2023-04-20T16:14:45.046Z,3.33
2023-04-20T16:18:46.491Z,4.50
2023-04-20T16:22:48.137Z,4.60
2023-04-20T16:26:49.776Z,3.43
2023-04-20T16:30:52.564Z,3.43
2023-04-20T16:34:54.453Z,3.77
2023-04-20T16:38:55.970Z,3.00
2023-04-20T16:42:57.427Z,4.40
2023-04-20T16:47:00.279Z,3.37
2023-04-20T16:51:01.863Z,3.00
2023-04-20T16:55:03.609Z,2.67
2023-04-20T16:59:05.466Z,2.63
2023-04-20T17:03:08.344Z,3.03
2023-04-20T17:07:09.909Z,3.33
2023-04-20T17:11:11.401Z,4.07
2023-04-20T17:15:12.940Z,3.60
2023-04-20T17:19:15.961Z,2.70
2023-04-20T17:23:18.103Z,4.03
2023-04-20T17:27:20.178Z,2.83
2023-04-20T17:31:21.653Z,2.83
2023-04-20T17:35:24.751Z,4.00
2023-04-20T17:39:26.525Z,3.63
2023-04-20T17:43:27.945Z,3.37
2023-04-20T17:47:29.354Z,4.80
2023-04-20T17:51:32.306Z,3.73
2023-04-20T17:55:33.994Z,5.37
2023-04-20T17:59:35.406Z,4.77
2023-04-20T18:03:37.195Z,5.17
2023-04-20T18:07:40.142Z,3.73
2023-04-20T18:11:41.639Z,4.23
2023-04-20T18:15:43.062Z,6.03
2023-04-20T18:19:44.507Z,4.37
2023-04-20T18:23:47.235Z,4.40
2023-04-20T18:27:48.638Z,4.27
2023-04-20T18:31:50.221Z,4.13
2023-04-20T18:35:51.760Z,4.20
2023-04-20T18:39:54.580Z,4.57
2023-04-20T18:43:56.427Z,5.10
2023-04-20T18:47:57.966Z,4.13
2023-04-20T18:51:59.640Z,5.60
2023-04-20T18:56:02.576Z,4.63
2023-04-20T19:00:04.853Z,4.77
2023-04-20T19:04:06.970Z,5.17
2023-04-20T19:08:08.681Z,5.43
2023-04-20T19:12:11.463Z,4.67
2023-04-20T19:16:12.951Z,5.43
2023-04-20T19:20:14.445Z,5.57
2023-04-20T19:24:16.337Z,5.40
2023-04-20T19:28:19.246Z,5.40
2023-04-20T19:32:20.966Z,5.50
2023-04-20T19:36:22.496Z,5.20
2023-04-20T19:40:24.297Z,5.67
2023-04-20T19:44:27.015Z,5.27
2023-04-20T19:48:28.600Z,6.63
2023-04-20T19:52:30.045Z,5.27
2023-04-20T19:56:31.642Z,5.93
2023-04-20T20:00:34.529Z,6.50
2023-04-20T20:04:36.193Z,5.67
2023-04-20T20:08:38.042Z,6.07
2023-04-20T20:12:39.536Z,8.67
2023-04-20T20:16:42.341Z,6.17
2023-04-20T20:20:44.070Z,7.13
2023-04-20T20:24:45.517Z,6.83
2023-04-20T20:28:46.898Z,9.87
2023-04-20T20:32:49.762Z,7.07
2023-04-20T20:36:51.462Z,8.00
2023-04-20T20:40:53.030Z,7.47
2023-04-20T20:44:54.473Z,7.00
2023-04-20T20:48:59.456Z,8.23
2023-04-20T20:53:03.150Z,8.60
2023-04-20T20:57:04.686Z,8.73
2023-04-20T21:01:06.187Z,8.43
2023-04-20T21:05:09.618Z,9.20
2023-04-20T21:09:11.023Z,8.63
2023-04-20T21:13:12.456Z,8.27
2023-04-20T21:17:13.878Z,8.63
2023-04-20T21:21:16.629Z,8.77
2023-04-20T21:25:18.505Z,9.17
2023-04-20T21:29:20.119Z,9.73
2023-04-20T21:33:21.814Z,9.13
2023-04-20T21:37:24.626Z,11.63
2023-04-20T21:41:27.142Z,10.37
2023-04-20T21:45:28.565Z,10.23
2023-04-20T21:49:29.935Z,9.97
2023-04-20T21:53:32.669Z,10.57
2023-04-20T21:57:34.066Z,11.10
2023-04-20T22:01:35.656Z,10.67
2023-04-20T22:05:37.606Z,10.53
2023-04-20T22:09:40.338Z,10.97
2023-04-20T22:13:41.751Z,11.07
2023-04-20T22:17:43.694Z,11.60
2023-04-20T22:21:45.116Z,11.97
2023-04-20T22:25:47.926Z,12.37
2023-04-20T22:29:49.334Z,11.97
2023-04-20T22:33:50.797Z,12.47
2023-04-20T22:37:52.405Z,14.67
2023-04-20T22:41:55.145Z,12.90
2023-04-20T22:45:56.556Z,13.27
2023-04-20T22:49:58.162Z,14.50
2023-04-20T22:53:59.528Z,15.27
2023-04-20T22:58:02.263Z,12.77
2023-04-20T23:02:03.806Z,13.47
2023-04-20T23:06:05.670Z,14.43
2023-04-20T23:10:09.060Z,15.27
2023-04-20T23:14:11.855Z,13.70
2023-04-20T23:18:13.340Z,14.67
2023-04-20T23:22:14.862Z,15.07
2023-04-20T23:26:17.288Z,14.93
2023-04-20T23:30:20.440Z,14.67
2023-04-20T23:34:21.921Z,18.63
2023-04-20T23:38:23.589Z,15.53
2023-04-20T23:42:24.980Z,15.07
2023-04-20T23:46:29.588Z,16.23
2023-04-20T23:50:31.317Z,15.27
2023-04-20T23:54:33.462Z,18.03
2023-04-20T23:58:35.075Z,17.53
